Time;durP1;ratioP1;P1;durP2;ratioP2;P2;SDS_P1;SDS_P2;PMS_P1;PMS_P2;Temp;Humidity;BMP_temperature;BMP_pressure;BME280_temperature;BME280_humidity;BME280_pressure;Samples;Min_cycle;Max_cycle;Signal;HPM_P1;HPM_P2
2022/06/22 00:01:01;;;;;;;1.92;1.50;;;13.00;99.90;;;;;;4896717;29;20063;-90
2022/06/22 00:03:27;;;;;;;3.17;1.52;;;13.00;99.90;;;;;;4908361;29;20032;-90
2022/06/22 00:05:53;;;;;;;3.97;1.92;;;13.00;99.90;;;;;;4903478;29;20036;-89
2022/06/22 00:08:25;;;;;;;2.75;1.52;;;12.90;99.90;;;;;;4924276;29;20088;-88
2022/06/22 00:10:52;;;;;;;2.67;1.40;;;12.90;99.90;;;;;;4903309;29;20062;-90
2022/06/22 00:13:22;;;;;;;4.88;1.63;;;12.90;99.90;;;;;;4919314;29;20036;-90
2022/06/22 00:15:57;;;;;;;3.28;2.05;;;12.90;99.90;;;;;;4915363;29;20039;-91
2022/06/22 00:18:26;;;;;;;5.57;1.52;;;12.90;99.90;;;;;;4924123;29;20062;-90
2022/06/22 00:20:55;;;;;;;9.05;1.70;;;12.90;99.90;;;;;;4896596;29;20025;-91
2022/06/22 00:23:35;;;;;;;3.58;1.60;;;12.80;99.90;;;;;;4903367;29;20024;-89
2022/06/22 00:26:16;;;;;;;3.10;1.60;;;12.80;99.90;;;;;;4917688;29;20107;-89
2022/06/22 00:29:07;;;;;;;8.05;1.98;;;12.70;99.90;;;;;;4902053;29;20036;-90
2022/06/22 00:31:37;;;;;;;1.77;1.50;;;12.60;99.90;;;;;;4885570;29;20037;-90
2022/06/22 00:34:09;;;;;;;1.75;1.50;;;12.50;99.90;;;;;;4926504;29;20042;-90
2022/06/22 00:36:36;;;;;;;1.63;1.42;;;12.30;99.90;;;;;;4914849;29;20299;-90
2022/06/22 00:39:20;;;;;;;2.60;1.48;;;12.20;99.90;;;;;;4916068;29;20695;-89
2022/06/22 00:41:58;;;;;;;2.72;1.85;;;12.10;99.90;;;;;;4923539;29;20028;-90
2022/06/22 00:44:28;;;;;;;2.00;1.80;;;12.00;99.90;;;;;;4913744;29;20066;-90
2022/06/22 00:47:05;;;;;;;3.50;2.27;;;11.90;99.90;;;;;;4899269;29;20527;-89
2022/06/22 00:49:31;;;;;;;4.30;1.92;;;11.90;99.90;;;;;;4909578;29;20486;-90
2022/06/22 00:52:04;;;;;;;2.72;1.63;;;11.80;99.90;;;;;;4909310;29;20494;-90
2022/06/22 00:54:33;;;;;;;4.30;2.03;;;11.80;99.90;;;;;;4899964;29;20032;-90
2022/06/22 00:57:20;;;;;;;1.98;1.85;;;11.80;99.90;;;;;;4918043;29;20064;-89
2022/06/22 00:59:56;;;;;;;3.33;1.90;;;11.80;99.90;;;;;;4916222;29;20147;-90
2022/06/22 01:02:45;;;;;;;2.17;1.95;;;11.90;99.90;;;;;;4903095;29;20437;-89
2022/06/22 01:05:35;;;;;;;2.38;1.80;;;12.00;99.90;;;;;;4915146;29;20024;-89
2022/06/22 01:08:09;;;;;;;1.75;1.60;;;12.00;99.90;;;;;;4910249;29;20048;-90
2022/06/22 01:10:38;;;;;;;2.22;1.98;;;12.10;99.90;;;;;;4899235;29;20429;-91
2022/06/22 01:13:32;;;;;;;1.80;1.58;;;12.10;99.90;;;;;;4925673;29;20077;-89
2022/06/22 01:16:22;;;;;;;4.32;2.00;;;12.00;99.90;;;;;;4915275;29;20407;-90
2022/06/22 01:19:38;;;;;;;2.30;1.95;;;12.00;99.90;;;;;;4900581;29;20032;-89
2022/06/22 01:22:30;;;;;;;2.20;2.00;;;12.00;99.90;;;;;;4884438;29;20028;-89
2022/06/22 01:25:21;;;;;;;5.10;1.92;;;12.00;99.90;;;;;;4887799;29;20039;-90
2022/06/22 01:27:47;;;;;;;2.40;1.80;;;11.90;99.90;;;;;;4893182;29;20025;-90
2022/06/22 01:30:28;;;;;;;2.22;2.03;;;11.90;99.90;;;;;;4909062;29;20032;-90
2022/06/22 01:32:54;;;;;;;3.25;2.15;;;11.80;99.90;;;;;;4935327;29;20853;-91
2022/06/22 01:35:30;;;;;;;2.35;1.83;;;11.80;99.90;;;;;;4923597;29;20025;-89
2022/06/22 01:37:56;;;;;;;2.22;2.03;;;11.70;99.90;;;;;;4890048;29;20543;-89
2022/06/22 01:40:25;;;;;;;3.67;2.03;;;11.70;99.90;;;;;;4910205;29;20032;-89
2022/06/22 01:43:06;;;;;;;3.15;2.47;;;11.60;99.90;;;;;;4898429;29;20060;-89
2022/06/22 01:46:07;;;;;;;1.85;1.75;;;11.60;99.90;;;;;;4919493;29;20109;-89
2022/06/22 01:48:44;;;;;;;2.70;2.25;;;11.60;99.90;;;;;;4916444;29;20405;-90
2022/06/22 01:51:25;;;;;;;1.70;1.60;;;11.60;99.90;;;;;;4906055;29;20032;-89
2022/06/22 01:54:13;;;;;;;2.35;2.15;;;11.50;99.90;;;;;;4915972;29;20028;-89
2022/06/22 01:57:06;;;;;;;3.55;2.47;;;11.50;99.90;;;;;;4907503;29;20040;-90
2022/06/22 01:59:41;;;;;;;2.90;2.53;;;11.50;99.90;;;;;;4918766;29;20047;-90
2022/06/22 02:02:16;;;;;;;2.42;2.10;;;11.40;99.90;;;;;;4908793;29;20020;-88
2022/06/22 02:04:50;;;;;;;2.20;1.65;;;11.40;99.90;;;;;;4919231;29;20080;-89
2022/06/22 02:10:28;;;;;;;5.05;1.98;;;11.40;99.90;;;;;;4915342;29;20438;-89
2022/06/22 02:13:03;;;;;;;2.75;2.00;;;11.40;99.90;;;;;;4893802;29;20110;-89
2022/06/22 02:15:43;;;;;;;2.28;1.70;;;11.40;99.90;;;;;;4931302;29;20054;-89
2022/06/22 02:18:21;;;;;;;2.40;1.63;;;11.50;99.90;;;;;;4915498;29;20036;-90
2022/06/22 02:20:48;;;;;;;3.08;2.20;;;11.50;99.90;;;;;;4924979;29;20024;-90
2022/06/22 02:23:32;;;;;;;2.55;2.22;;;11.50;99.90;;;;;;4916439;29;20477;-90
2022/06/22 02:26:15;;;;;;;2.72;1.90;;;11.50;99.90;;;;;;4918359;29;20020;-89
2022/06/22 02:28:42;;;;;;;1.90;1.80;;;11.40;99.90;;;;;;4909741;29;20132;-90
2022/06/22 02:31:08;;;;;;;2.80;2.08;;;11.30;99.90;;;;;;4901810;29;20167;-90
2022/06/22 02:33:37;;;;;;;4.65;2.00;;;11.30;99.90;;;;;;4921620;29;20031;-90
2022/06/22 02:36:04;;;;;;;2.45;2.25;;;11.20;99.90;;;;;;4901069;29;20107;-91
2022/06/22 02:38:30;;;;;;;4.18;2.25;;;11.20;99.90;;;;;;4900475;29;20036;-90
2022/06/22 02:46:38;;;;;;;2.38;2.15;;;11.20;99.90;;;;;;4921206;29;20132;-90
2022/06/22 02:49:27;;;;;;;2.78;2.55;;;11.10;99.90;;;;;;4909501;29;20119;-90
2022/06/22 02:51:54;;;;;;;3.78;2.20;;;11.10;99.90;;;;;;4911850;29;20024;-90
2022/06/22 02:54:28;;;;;;;8.23;2.40;;;11.10;99.90;;;;;;4888521;29;20033;-90
2022/06/22 02:57:05;;;;;;;2.58;2.20;;;11.10;99.90;;;;;;4932357;29;20054;-91
2022/06/22 02:59:31;;;;;;;2.35;2.15;;;11.10;99.90;;;;;;4921110;29;20053;-91
2022/06/22 03:01:58;;;;;;;4.93;3.25;;;11.10;99.90;;;;;;4914268;29;20028;-90
2022/06/22 03:04:24;;;;;;;4.43;2.25;;;11.10;99.90;;;;;;4928767;29;20127;-90
2022/06/22 03:06:54;;;;;;;2.75;2.55;;;11.10;99.90;;;;;;4901477;29;20135;-90
2022/06/22 03:09:20;;;;;;;2.72;2.53;;;11.00;99.90;;;;;;4899405;29;20382;-90
2022/06/22 03:11:55;;;;;;;3.78;2.45;;;11.00;99.90;;;;;;4904077;29;20067;-91
2022/06/22 03:14:29;;;;;;;3.40;2.38;;;10.90;99.90;;;;;;4917081;29;20026;-90
2022/06/22 03:17:01;;;;;;;2.80;2.33;;;10.90;99.90;;;;;;4917746;29;20619;-90
2022/06/22 03:20:00;;;;;;;5.78;2.60;;;10.90;99.90;;;;;;4901639;29;20059;-90
2022/06/22 03:22:30;;;;;;;2.80;2.40;;;10.90;99.90;;;;;;4918210;29;20051;-89
2022/06/22 03:25:03;;;;;;;4.07;2.97;;;10.90;99.90;;;;;;4935839;29;20074;-91
2022/06/22 03:27:34;;;;;;;3.20;2.40;;;10.90;99.90;;;;;;4922841;29;20032;-90
2022/06/22 03:30:03;;;;;;;2.35;2.00;;;10.90;99.90;;;;;;4921850;29;20039;-91
2022/06/22 03:32:39;;;;;;;2.63;1.85;;;10.90;99.90;;;;;;4895447;29;20050;-91
2022/06/22 03:35:23;;;;;;;3.38;2.08;;;10.90;99.90;;;;;;4918617;29;20059;-91
2022/06/22 03:37:59;;;;;;;3.92;2.42;;;11.10;99.90;;;;;;4905845;29;20020;-90
2022/06/22 03:40:45;;;;;;;2.90;2.45;;;11.10;99.90;;;;;;4915941;29;20064;-90
2022/06/22 03:43:19;;;;;;;2.63;2.40;;;11.20;99.90;;;;;;4910195;29;20398;-90
2022/06/22 03:45:49;;;;;;;3.40;2.42;;;11.30;99.90;;;;;;4915989;29;20028;-91
2022/06/22 03:48:42;;;;;;;3.35;2.42;;;11.40;99.90;;;;;;4904803;29;20382;-91
2022/06/22 03:51:33;;;;;;;4.13;2.60;;;11.50;99.90;;;;;;4915893;29;20114;-90
2022/06/22 03:53:59;;;;;;;3.55;3.22;;;11.50;99.90;;;;;;4903092;29;20507;-91
2022/06/22 03:56:31;;;;;;;8.95;2.78;;;11.50;99.90;;;;;;4890799;29;20051;-90
2022/06/22 03:58:58;;;;;;;6.10;2.83;;;11.40;99.90;;;;;;4917189;29;20039;-91
2022/06/22 04:01:24;;;;;;;3.92;2.60;;;11.40;99.90;;;;;;4897739;29;20020;-90
2022/06/22 04:03:53;;;;;;;5.30;2.67;;;11.40;99.90;;;;;;4890102;29;20036;-90
2022/06/22 04:06:30;;;;;;;4.13;2.40;;;11.40;99.90;;;;;;4916696;29;20028;-91
2022/06/22 04:08:56;;;;;;;4.57;2.75;;;11.30;99.90;;;;;;4921668;29;20564;-91
2022/06/22 04:11:44;;;;;;;9.02;3.30;;;11.30;99.90;;;;;;4899672;29;20028;-90
2022/06/22 04:14:23;;;;;;;55.50;5.85;;;11.30;99.90;;;;;;4877388;29;20442;-89
2022/06/22 04:17:18;;;;;;;30.55;4.22;;;11.40;99.90;;;;;;4912039;29;20028;-90
2022/06/22 04:19:50;;;;;;;30.20;5.15;;;11.40;99.90;;;;;;4913874;29;20048;-91
2022/06/22 04:22:20;;;;;;;6.78;3.17;;;11.40;99.90;;;;;;4893971;29;20120;-90
2022/06/22 04:25:14;;;;;;;6.18;3.38;;;11.50;99.90;;;;;;4920254;29;20115;-90
2022/06/22 04:27:43;;;;;;;12.70;3.97;;;11.70;99.90;;;;;;4915254;29;20028;-91
2022/06/22 04:30:19;;;;;;;6.68;3.20;;;11.90;99.90;;;;;;4900373;29;20032;-90
2022/06/22 04:32:57;;;;;;;3.70;2.55;;;12.10;99.90;;;;;;4891010;29;20039;-92
2022/06/22 04:35:34;;;;;;;4.93;3.25;;;12.40;99.90;;;;;;4913884;29;20035;-90
2022/06/22 04:38:09;;;;;;;4.28;2.60;;;12.60;99.90;;;;;;4930285;29;20019;-90
2022/06/22 04:40:37;;;;;;;3.78;2.65;;;12.80;99.90;;;;;;4899338;29;20043;-91
2022/06/22 04:43:04;;;;;;;2.42;2.22;;;13.00;99.90;;;;;;4910019;29;20032;-92
2022/06/22 04:45:34;;;;;;;3.20;2.50;;;13.30;99.90;;;;;;4931485;29;20032;-91
2022/06/22 04:48:09;;;;;;;2.50;2.30;;;13.50;99.90;;;;;;4916069;29;20032;-91
2022/06/22 04:50:41;;;;;;;4.03;2.10;;;13.80;99.90;;;;;;4888493;29;20498;-91
2022/06/22 04:53:18;;;;;;;2.53;2.17;;;14.10;99.90;;;;;;4908699;29;20039;-92
2022/06/22 04:55:44;;;;;;;3.20;2.90;;;14.30;99.90;;;;;;4921078;29;20459;-91
2022/06/22 04:58:53;;;;;;;4.78;2.72;;;14.60;99.90;;;;;;4915693;29;20032;-90
2022/06/22 05:01:34;;;;;;;3.38;2.20;;;14.90;99.90;;;;;;4903047;29;20055;-91
2022/06/22 05:04:05;;;;;;;4.03;2.60;;;15.20;99.90;;;;;;4896799;29;20049;-90
2022/06/22 05:06:57;;;;;;;13.25;2.72;;;15.50;99.90;;;;;;4888551;29;20028;-91
2022/06/22 05:09:41;;;;;;;35.40;3.45;;;15.70;99.90;;;;;;4922108;29;20029;-89
2022/06/22 05:12:16;;;;;;;7.55;2.53;;;16.00;99.30;;;;;;4915376;29;20119;-90
2022/06/22 05:14:44;;;;;;;4.88;2.10;;;16.40;98.10;;;;;;4900930;29;20146;-90
2022/06/22 05:17:32;;;;;;;4.22;1.75;;;17.30;95.90;;;;;;4899602;29;20107;-91
2022/06/22 05:20:00;;;;;;;2.05;1.85;;;18.80;92.20;;;;;;4902667;29;20055;-91
2022/06/22 05:22:26;;;;;;;3.95;1.58;;;20.20;85.60;;;;;;4924082;29;20107;-91
2022/06/22 05:25:03;;;;;;;18.27;2.90;;;21.60;78.00;;;;;;4903798;29;20119;-91
2022/06/22 05:27:50;;;;;;;6.28;1.75;;;22.90;72.30;;;;;;4896253;29;20048;-92
2022/06/22 05:30:17;;;;;;;5.18;1.70;;;24.10;64.80;;;;;;4896323;29;20028;-91
2022/06/22 05:32:46;;;;;;;4.13;2.03;;;24.90;60.00;;;;;;4906725;29;20032;-89
2022/06/22 05:35:23;;;;;;;1.75;1.30;;;25.70;55.90;;;;;;4915154;29;20024;-91
2022/06/22 05:37:52;;;;;;;1.85;1.20;;;26.30;52.20;;;;;;4898752;29;20025;-91
2022/06/22 05:40:21;;;;;;;2.10;1.30;;;26.50;51.60;;;;;;4909378;29;20039;-89
2022/06/22 05:42:47;;;;;;;5.05;1.60;;;27.10;50.70;;;;;;4929209;29;20036;-91
2022/06/22 05:45:25;;;;;;;1.73;1.25;;;27.90;50.70;;;;;;4934346;29;20522;-91
2022/06/22 05:47:53;;;;;;;1.73;1.00;;;28.70;47.60;;;;;;4919567;29;20598;-91
2022/06/22 05:50:45;;;;;;;1.33;0.93;;;29.10;46.60;;;;;;4908732;29;20028;-93
2022/06/22 05:53:17;;;;;;;2.70;1.00;;;28.90;46.70;;;;;;4900644;29;20028;-92
2022/06/22 05:55:53;;;;;;;1.70;0.80;;;29.30;46.50;;;;;;4913372;29;20024;-91
2022/06/22 05:58:52;;;;;;;2.67;0.90;;;29.70;45.50;;;;;;4918050;29;20038;-91
2022/06/22 06:01:32;;;;;;;1.20;0.90;;;30.00;42.90;;;;;;4913155;29;20039;-92
2022/06/22 06:04:00;;;;;;;3.53;1.20;;;29.70;43.30;;;;;;4931488;29;20036;-91
2022/06/22 06:06:31;;;;;;;3.38;1.05;;;29.60;43.20;;;;;;4918468;29;20388;-91
2022/06/22 06:09:04;;;;;;;1.23;1.13;;;29.00;46.00;;;;;;4901290;29;20037;-91
2022/06/22 06:11:39;;;;;;;2.28;1.10;;;28.20;45.50;;;;;;4904274;29;20041;-91
2022/06/22 06:14:11;;;;;;;1.90;1.10;;;28.30;47.20;;;;;;4906168;29;20476;-91
2022/06/22 06:16:54;;;;;;;1.73;1.17;;;28.50;47.00;;;;;;4903317;29;20031;-92
2022/06/22 06:19:28;;;;;;;1.67;1.17;;;29.00;46.00;;;;;;4905229;29;20083;-90
2022/06/22 06:21:59;;;;;;;1.83;1.25;;;28.40;44.70;;;;;;4917619;29;20091;-91
2022/06/22 06:27:38;;;;;;;2.35;1.20;;;28.00;46.90;;;;;;4904674;29;20036;-91
2022/06/22 06:30:18;;;;;;;4.43;1.48;;;29.50;45.70;;;;;;4897701;29;20040;-92
2022/06/22 06:32:50;;;;;;;;;;;30.80;43.40;;;;;;4890655;29;20039;-91
2022/06/22 06:35:25;;;;;;;2.00;1.15;;;31.40;41.40;;;;;;4888732;29;19915;-91
2022/06/22 06:38:03;;;;;;;3.75;0.90;;;31.00;42.00;;;;;;4920555;29;20115;-91
2022/06/22 06:40:41;;;;;;;1.17;0.90;;;30.00;43.20;;;;;;4907688;29;20044;-91
2022/06/22 06:43:38;;;;;;;2.05;1.00;;;30.30;43.20;;;;;;4917384;29;20103;-91
2022/06/22 06:46:12;;;;;;;2.05;1.00;;;30.10;43.50;;;;;;4906469;29;20115;-91
2022/06/22 06:48:41;;;;;;;5.45;1.13;;;30.10;44.10;;;;;;4905627;29;20037;-91
2022/06/22 06:51:12;;;;;;;2.28;1.08;;;30.70;43.00;;;;;;4906808;29;20043;-90
2022/06/22 06:53:48;;;;;;;2.67;1.02;;;30.50;42.00;;;;;;4897311;29;20037;-91
2022/06/22 06:56:36;;;;;;;2.00;1.00;;;30.10;43.10;;;;;;4904009;29;20056;-91
2022/06/22 06:59:08;;;;;;;2.40;0.90;;;29.60;44.10;;;;;;4928185;29;20024;-90
2022/06/22 07:01:37;;;;;;;1.95;1.20;;;29.90;44.70;;;;;;4924713;29;20032;-90
2022/06/22 07:04:13;;;;;;;3.80;1.30;;;30.10;44.30;;;;;;4921824;29;20043;-91
2022/06/22 07:06:40;;;;;;;2.35;0.80;;;30.30;43.90;;;;;;4923176;29;20032;-91
2022/06/22 07:09:36;;;;;;;2.28;0.93;;;30.30;43.30;;;;;;4916070;29;20056;-91
2022/06/22 07:12:23;;;;;;;1.98;0.93;;;31.00;42.70;;;;;;4914170;29;20040;-91
2022/06/22 07:14:49;;;;;;;2.00;1.00;;;32.40;42.50;;;;;;4905422;29;20502;-91
2022/06/22 07:17:17;;;;;;;5.40;1.58;;;32.40;39.60;;;;;;4916867;29;20020;-90
2022/06/22 07:20:05;;;;;;;1.65;0.98;;;32.60;40.70;;;;;;4924028;29;20092;-91
2022/06/22 07:22:45;;;;;;;0.98;0.80;;;32.90;39.90;;;;;;4901850;29;20037;-90
2022/06/22 07:25:19;;;;;;;;;;;33.20;39.40;;;;;;4926508;29;20032;-91
2022/06/22 07:28:12;;;;;;;2.03;0.90;;;32.80;39.50;;;;;;4922715;29;20010;-91
2022/06/22 07:30:48;;;;;;;1.77;1.00;;;34.80;38.80;;;;;;4902264;29;20461;-93
2022/06/22 07:33:39;;;;;;;1.30;0.73;;;36.10;36.80;;;;;;4912563;29;20138;-91
2022/06/22 07:36:21;;;;;;;2.70;0.90;;;36.20;36.10;;;;;;4908462;29;20038;-92
2022/06/22 07:39:14;;;;;;;1.40;0.93;;;36.40;35.60;;;;;;4914834;29;20040;-91
2022/06/22 07:41:41;;;;;;;1.70;0.90;;;36.10;35.40;;;;;;4891856;29;20462;-91
2022/06/22 07:44:18;;;;;;;1.15;0.80;;;36.50;36.10;;;;;;4909648;29;20032;-90
2022/06/22 07:47:00;;;;;;;1.88;1.02;;;36.60;35.30;;;;;;4929527;29;20024;-92
2022/06/22 07:49:36;;;;;;;1.85;0.85;;;37.10;34.90;;;;;;4907698;29;20043;-90
2022/06/22 07:52:05;;;;;;;1.67;0.75;;;37.40;34.00;;;;;;4910905;29;20031;-91
2022/06/22 07:54:42;;;;;;;2.80;0.80;;;37.40;34.50;;;;;;4910571;29;20111;-91
2022/06/22 07:57:12;;;;;;;2.15;1.00;;;37.50;34.50;;;;;;4905138;29;20115;-91
2022/06/22 07:59:52;;;;;;;1.33;0.80;;;37.80;33.30;;;;;;4912408;29;20032;-90
2022/06/22 08:02:25;;;;;;;2.08;0.80;;;37.50;33.80;;;;;;4915905;29;20027;-91
2022/06/22 08:05:02;;;;;;;1.48;0.75;;;38.20;33.40;;;;;;4921480;29;20017;-90
2022/06/22 08:07:37;;;;;;;1.80;1.00;;;38.30;32.00;;;;;;4905275;29;20028;-92
2022/06/22 08:10:10;;;;;;;0.80;0.70;;;38.30;32.00;;;;;;4913383;29;20036;-92
2022/06/22 08:13:03;;;;;;;4.40;1.00;;;38.50;31.10;;;;;;4900829;29;20045;-91
2022/06/22 08:15:33;;;;;;;1.08;0.70;;;39.10;31.30;;;;;;4909368;29;20032;-91
2022/06/22 08:18:01;;;;;;;1.00;0.80;;;39.40;31.20;;;;;;4909955;29;20035;-91
2022/06/22 08:20:31;;;;;;;2.65;0.55;;;40.10;31.20;;;;;;4904881;29;20399;-92
2022/06/22 08:22:59;;;;;;;1.10;0.77;;;40.80;30.90;;;;;;4899224;29;20066;-91
2022/06/22 08:25:25;;;;;;;3.03;0.80;;;40.60;30.70;;;;;;4907723;29;20063;-91
2022/06/22 08:27:52;;;;;;;1.02;0.77;;;41.00;29.50;;;;;;4891090;29;20076;-90
2022/06/22 08:30:19;;;;;;;1.52;0.75;;;41.30;30.30;;;;;;4892619;29;20037;-92
2022/06/22 08:33:12;;;;;;;1.60;0.70;;;40.80;30.70;;;;;;4917414;29;20036;-89
2022/06/22 08:35:43;;;;;;;1.63;0.70;;;40.20;30.20;;;;;;4906918;29;20024;-91
2022/06/22 08:38:26;;;;;;;1.92;0.88;;;40.70;30.10;;;;;;4922400;29;20035;-90
2022/06/22 08:41:01;;;;;;;2.00;0.65;;;41.10;30.10;;;;;;4901590;29;20019;-92
2022/06/22 08:43:57;;;;;;;2.05;0.75;;;40.80;30.00;;;;;;4906006;29;20028;-91
2022/06/22 08:46:50;;;;;;;1.23;0.70;;;40.30;29.50;;;;;;4899352;29;20024;-92
2022/06/22 08:49:34;;;;;;;2.35;0.75;;;39.90;29.70;;;;;;4911810;29;20044;-92
2022/06/22 08:52:05;;;;;;;2.53;0.90;;;39.00;30.20;;;;;;4929374;29;20040;-91
2022/06/22 08:54:49;;;;;;;1.00;0.90;;;39.10;32.60;;;;;;4914572;29;20062;-91
2022/06/22 08:57:26;;;;;;;3.08;0.93;;;39.30;31.60;;;;;;4902508;29;20036;-91
2022/06/22 09:00:04;;;;;;;2.17;0.90;;;39.50;30.60;;;;;;4893329;29;20029;-92
2022/06/22 09:02:59;;;;;;;3.05;0.90;;;39.70;30.20;;;;;;4893514;29;20025;-90
2022/06/22 09:05:43;;;;;;;3.53;0.90;;;39.50;31.30;;;;;;4897557;29;20028;-91
2022/06/22 09:08:46;;;;;;;1.20;0.90;;;39.60;31.20;;;;;;4900292;29;20028;-91
2022/06/22 09:11:23;;;;;;;1.63;0.70;;;39.70;30.40;;;;;;4884258;29;20037;-91
2022/06/22 09:13:52;;;;;;;0.98;0.77;;;39.90;30.70;;;;;;4907157;29;20047;-90
2022/06/22 09:16:24;;;;;;;3.70;0.77;;;40.40;30.00;;;;;;4917672;29;20059;-90
2022/06/22 09:19:01;;;;;;;1.15;0.68;;;40.80;30.30;;;;;;4885301;29;20035;-89
2022/06/22 09:21:39;;;;;;;1.52;0.68;;;41.20;30.00;;;;;;4918251;29;20035;-92
2022/06/22 09:24:21;;;;;;;2.95;0.90;;;41.40;29.80;;;;;;4908594;29;20404;-91
2022/06/22 09:26:50;;;;;;;1.38;0.75;;;42.30;29.60;;;;;;4906937;29;20052;-90
2022/06/22 09:29:46;;;;;;;1.73;0.80;;;42.60;29.00;;;;;;4893452;29;20131;-90
2022/06/22 09:32:42;;;;;;;1.52;0.95;;;42.10;27.90;;;;;;4893280;29;20029;-91
2022/06/22 09:35:08;;;;;;;1.10;0.60;;;41.30;29.40;;;;;;4926188;29;20476;-90
2022/06/22 09:38:08;;;;;;;2.60;0.70;;;41.50;30.10;;;;;;4899857;29;20061;-91
2022/06/22 09:40:33;;;;;;;;;;;41.20;29.10;;;;;;4897418;29;20029;-89
2022/06/22 09:43:28;;;;;;;3.03;0.90;;;41.90;29.80;;;;;;4900681;29;19920;-91
2022/06/22 09:46:10;;;;;;;3.50;0.90;;;41.90;28.80;;;;;;4889792;29;20446;-91
2022/06/22 09:49:05;;;;;;;4.75;1.02;;;41.50;29.90;;;;;;4913701;29;20024;-92
2022/06/22 09:51:49;;;;;;;2.40;0.82;;;41.60;30.40;;;;;;4916368;29;20050;-91
2022/06/22 09:57:38;;;;;;;3.08;0.93;;;41.80;29.50;;;;;;4916129;29;20059;-89
2022/06/22 10:00:10;;;;;;;3.70;1.27;;;42.00;28.70;;;;;;4913701;29;20489;-91
2022/06/22 10:02:48;;;;;;;2.20;0.70;;;42.10;28.30;;;;;;4900370;29;20039;-90
2022/06/22 10:05:40;;;;;;;1.83;0.80;;;42.00;28.90;;;;;;4911326;29;20040;-91
2022/06/22 10:08:27;;;;;;;3.53;1.02;;;42.60;29.00;;;;;;4886164;29;20439;-90
2022/06/22 10:10:53;;;;;;;0.75;0.57;;;42.80;28.90;;;;;;4891811;29;20041;-92
2022/06/22 10:13:24;;;;;;;3.80;0.80;;;42.80;29.00;;;;;;4900023;29;20039;-91
2022/06/22 10:16:01;;;;;;;0.85;0.70;;;43.20;29.10;;;;;;4900693;29;20060;-90
2022/06/22 10:18:58;;;;;;;1.48;0.63;;;43.20;28.40;;;;;;4917543;29;20039;-90
2022/06/22 10:21:48;;;;;;;1.23;0.63;;;43.40;28.10;;;;;;4909448;29;20092;-90
2022/06/22 10:24:56;;;;;;;1.42;0.73;;;43.40;27.80;;;;;;4901335;29;20087;-89
2022/06/22 10:27:24;;;;;;;1.50;0.80;;;43.40;28.50;;;;;;4906008;29;20094;-90
2022/06/22 10:30:12;;;;;;;1.88;0.50;;;43.70;27.20;;;;;;4921799;29;20532;-91
2022/06/22 10:33:03;;;;;;;1.17;0.80;;;44.50;27.10;;;;;;4903122;29;20087;-91
2022/06/22 10:35:47;;;;;;;1.92;0.75;;;44.80;26.80;;;;;;4888759;29;20028;-90
2022/06/22 10:38:23;;;;;;;2.55;0.80;;;44.20;27.70;;;;;;4900186;29;20031;-90
2022/06/22 10:46:25;;;;;;;1.23;0.77;;;42.80;28.70;;;;;;4922893;29;20083;-93
2022/06/22 10:49:01;;;;;;;2.10;1.00;;;43.40;28.30;;;;;;4924246;29;20497;-91
2022/06/22 10:51:41;;;;;;;1.10;0.75;;;43.70;27.90;;;;;;4928872;29;20036;-90
2022/06/22 10:54:33;;;;;;;1.63;0.80;;;43.90;27.80;;;;;;4919278;29;20039;-91
2022/06/22 10:57:25;;;;;;;1.90;0.70;;;43.30;28.40;;;;;;4910751;29;20144;-91
2022/06/22 11:00:14;;;;;;;1.33;0.80;;;42.80;28.80;;;;;;4903429;29;20107;-91
2022/06/22 11:02:58;;;;;;;1.17;0.90;;;42.00;28.50;;;;;;4916453;29;20044;-89
2022/06/22 11:06:06;;;;;;;1.13;0.80;;;41.30;30.00;;;;;;4917551;29;20492;-92
2022/06/22 11:08:51;;;;;;;0.80;0.65;;;40.30;29.40;;;;;;4898844;29;20056;-89
2022/06/22 11:11:34;;;;;;;1.65;0.80;;;39.60;32.20;;;;;;4917153;29;20028;-89
2022/06/22 11:14:33;;;;;;;1.92;0.80;;;38.90;32.00;;;;;;4907178;29;20020;-90
2022/06/22 11:17:45;;;;;;;2.72;0.70;;;38.50;32.80;;;;;;4892460;29;20036;-89
2022/06/22 11:20:24;;;;;;;2.00;0.90;;;38.20;33.80;;;;;;4854589;29;20044;-88
2022/06/22 11:22:54;;;;;;;1.73;0.90;;;38.00;34.00;;;;;;4894692;29;20020;-89
2022/06/22 11:31:53;;;;;;;2.40;0.93;;;37.70;33.10;;;;;;4895794;29;20074;-92
2022/06/22 11:34:28;;;;;;;3.60;1.20;;;37.60;33.70;;;;;;4909116;29;20035;-89
2022/06/22 11:37:09;;;;;;;2.30;1.30;;;37.30;33.40;;;;;;4920171;29;20029;-89
2022/06/22 11:39:40;;;;;;;1.70;0.90;;;37.10;34.10;;;;;;4917249;29;20095;-91
2022/06/22 11:42:39;;;;;;;5.32;1.20;;;36.60;34.30;;;;;;4905611;29;20046;-89
2022/06/22 11:48:22;;;;;;;1.67;1.00;;;36.20;33.90;;;;;;4922850;29;20050;-89
2022/06/22 11:51:15;;;;;;;1.15;1.00;;;36.00;35.20;;;;;;4924731;29;20155;-91
2022/06/22 11:53:59;;;;;;;2.00;0.95;;;36.20;34.40;;;;;;4915404;29;20092;-90
2022/06/22 11:56:36;;;;;;;3.13;1.08;;;36.40;35.20;;;;;;4912832;29;20032;-89
2022/06/22 11:59:20;;;;;;;1.48;0.90;;;36.40;34.80;;;;;;4911430;29;20058;-89
2022/06/22 12:02:05;;;;;;;1.50;0.93;;;36.20;34.90;;;;;;4883170;29;20572;-91
2022/06/22 12:04:39;;;;;;;1.88;0.98;;;36.00;34.90;;;;;;4901939;29;20036;-91
2022/06/22 12:07:23;;;;;;;1.75;1.23;;;36.10;35.10;;;;;;4914873;29;20032;-91
2022/06/22 12:10:15;;;;;;;2.25;1.00;;;36.20;35.00;;;;;;4888948;29;20091;-90
2022/06/22 12:13:00;;;;;;;3.75;0.90;;;36.40;33.20;;;;;;4877772;29;20046;-90
2022/06/22 12:16:01;;;;;;;2.08;1.13;;;36.60;32.80;;;;;;4888536;29;20088;-90
2022/06/22 12:18:39;;;;;;;1.00;0.88;;;36.60;33.60;;;;;;4919361;29;20046;-90
2022/06/22 12:21:27;;;;;;;2.08;1.00;;;36.50;33.30;;;;;;4911783;29;20036;-92
2022/06/22 12:24:11;;;;;;;2.25;1.17;;;36.20;34.10;;;;;;4917852;29;20119;-90
2022/06/22 12:26:52;;;;;;;1.55;0.95;;;36.10;34.80;;;;;;4932557;29;20054;-90
2022/06/22 12:29:48;;;;;;;3.25;1.00;;;36.50;33.60;;;;;;4909834;29;20056;-89
2022/06/22 12:32:23;;;;;;;1.98;1.10;;;36.90;32.80;;;;;;4895269;29;20115;-91
2022/06/22 12:35:12;;;;;;;5.47;0.80;;;37.00;31.80;;;;;;4904345;29;20024;-90
2022/06/22 12:37:43;;;;;;;3.15;1.08;;;36.90;31.90;;;;;;4913463;29;20020;-91
2022/06/22 12:40:22;;;;;;;2.47;1.10;;;36.50;34.70;;;;;;4900489;29;20119;-91
2022/06/22 12:43:06;;;;;;;2.42;0.90;;;35.90;34.40;;;;;;4921717;29;20468;-91
2022/06/22 12:45:47;;;;;;;3.42;0.90;;;35.80;34.80;;;;;;4900655;29;20040;-90
2022/06/22 12:48:44;;;;;;;2.05;1.33;;;35.50;34.80;;;;;;4882689;29;20032;-91
2022/06/22 12:51:29;;;;;;;1.10;0.80;;;35.30;35.30;;;;;;4915164;29;20036;-90
2022/06/22 12:54:12;;;;;;;3.85;1.17;;;35.00;36.60;;;;;;4887461;29;20598;-89
2022/06/22 12:56:48;;;;;;;1.40;0.90;;;34.90;37.10;;;;;;4912000;29;20055;-92
2022/06/22 12:59:23;;;;;;;2.22;1.10;;;35.10;36.40;;;;;;4894035;29;20028;-91
2022/06/22 13:01:51;;;;;;;3.13;0.95;;;35.50;35.20;;;;;;4906313;29;20024;-92
2022/06/22 13:04:21;;;;;;;2.90;0.90;;;36.00;34.60;;;;;;4928528;29;20032;-91
2022/06/22 13:06:52;;;;;;;1.45;1.00;;;36.20;35.50;;;;;;4932891;29;20406;-90
2022/06/22 13:09:18;;;;;;;3.20;1.00;;;36.00;36.40;;;;;;4903791;29;20493;-90
2022/06/22 13:11:45;;;;;;;4.95;1.10;;;35.80;35.40;;;;;;4900278;29;20516;-90
2022/06/22 13:14:38;;;;;;;2.85;0.93;;;35.50;36.10;;;;;;4929793;29;20034;-89
2022/06/22 13:17:04;;;;;;;2.80;0.85;;;35.40;35.90;;;;;;4917187;29;20847;-89
2022/06/22 13:20:19;;;;;;;2.33;1.77;;;35.60;33.90;;;;;;4919019;29;20120;-89
2022/06/22 13:22:50;;;;;;;2.05;1.15;;;35.60;35.00;;;;;;4827176;29;20063;-91
2022/06/22 13:25:15;;;;;;;1.83;1.05;;;35.50;35.20;;;;;;4938012;29;20032;-90
2022/06/22 13:28:01;;;;;;;5.35;1.00;;;35.10;35.20;;;;;;4904875;29;20075;-90
2022/06/22 13:30:33;;;;;;;2.47;1.17;;;34.90;36.10;;;;;;4911411;29;20096;-90
2022/06/22 13:33:02;;;;;;;2.13;1.08;;;34.50;36.40;;;;;;4902013;29;20036;-91
2022/06/22 13:35:37;;;;;;;4.80;1.10;;;34.20;36.90;;;;;;4923430;29;20032;-90
2022/06/22 13:38:31;;;;;;;2.88;1.13;;;33.90;37.40;;;;;;4936058;29;20039;-90
2022/06/22 13:41:06;;;;;;;3.25;1.27;;;33.70;37.10;;;;;;4915465;29;20068;-91
2022/06/22 13:43:56;;;;;;;3.17;1.10;;;33.40;37.70;;;;;;4924857;29;20487;-89
2022/06/22 13:46:45;;;;;;;2.45;1.23;;;33.30;38.10;;;;;;4908361;29;20028;-90
2022/06/22 13:49:19;;;;;;;2.93;1.17;;;33.20;37.90;;;;;;4895617;29;20509;-92
2022/06/22 13:51:58;;;;;;;2.10;1.15;;;33.10;38.00;;;;;;4895042;29;20268;-91
2022/06/22 13:54:45;;;;;;;3.72;1.20;;;33.10;38.20;;;;;;4908249;29;20036;-90
2022/06/22 13:57:36;;;;;;;4.70;1.25;;;33.00;37.60;;;;;;4917619;29;20123;-89
2022/06/22 14:00:11;;;;;;;3.38;1.40;;;33.00;38.10;;;;;;4889576;29;20107;-93
2022/06/22 14:03:02;;;;;;;2.53;1.52;;;33.20;39.20;;;;;;4910371;29;20040;-92
2022/06/22 14:05:40;;;;;;;2.20;1.00;;;33.20;38.30;;;;;;4911824;29;20717;-93
2022/06/22 14:08:26;;;;;;;2.58;1.30;;;33.30;38.30;;;;;;4899452;29;20032;-91
2022/06/22 14:11:25;;;;;;;2.05;0.98;;;33.30;38.80;;;;;;4920872;29;20099;-91
2022/06/22 14:14:02;;;;;;;5.97;1.20;;;33.30;38.00;;;;;;4897897;29;20036;-91
2022/06/22 14:17:07;;;;;;;2.45;1.20;;;33.30;37.80;;;;;;4908441;29;20120;-90